Impacts TAF Board INFO
FOR SITUATIONAL AWARENESS. NOT TO BE USED FOR FLIGHT PLANNING PURPOSES.
IDs:

KLGA - New York/La Guardia, NY, US

Issued at 0141 UTC 17 Aug 2018
Updated at 0525 UTC 17 Aug 2018
Potential Impact None Slight Moderate High
Time<<18/06Z 18/07Z 18/08Z 18/09Z 18/10Z 18/11Z 18/12Z 18/13Z 18/14Z 18/15Z 18/16Z 18/17Z 18/18Z
Type
VIS
CIG
Cover
FltCat
WX
WDir
WSpd
WGst

Raw TAF
KLGA 170141Z 1702/1806 26010KT P6SM FEW070
  FM170400 26006KT P6SM FEW070 SCT200
  FM171300 20008KT P6SM FEW050 SCT150
  FM171500 19010KT P6SM FEW050 SCT150 SCT250
  FM171800 18013G20KT P6SM SCT050 SCT150 BKN250
  PROB30 1722/1801 4SM TSRA BKN030CB
  FM180100 21012KT 5SM SHRA BKN050
  PROB30 1801/1803 TSRA BKN035CB
  FM180400 23009KT 5SM -SHRA BKN050


METAR Board
Radar Display
Forecast Discussion

FOR SITUATIONAL AWARENESS. NOT TO BE USED FOR FLIGHT PLANNING PURPOSES.